Terminal Aerodrome Forecast
Issued by NWS

Home | Current Version | Previous Version | Text Only | Print | Product List | Glossary On
Versions: 1 2 3 4 5 6 7 8 9 10 11 12 13 14 15 16 17 18 19 20 21 22 23 24 25
000
FTUS43 KDLH 261800 AAA
TAFHYR
TAF AMD
KHYR 261802Z 2618/2718 18007KT 1 1/2SM -SN BR SCT007 OVC012
      TEMPO 2618/2620 4SM -SN BR OVC007
     FM262000 25005KT 4SM -SN BR OVC007
     FM270000 32003KT P6SM SCT007 OVC015=

USA.gov is the U.S. government's official web portal to all federal, state and local government web resources and services.